Aviation Digital Data Service (ADDS)

Output produced by METARs form (1106 UTC 28 July 2021)
found at http://aviationweather.gov/metar/data/
 
METAR text: KTEX 281055Z AUTO 00000KT 10SM OVC110 12/11 A3057 RMK AO2
Conditions at: KTEX (TELLURIDE REGION, CO, US) observed 1055 UTC 28 July 2021
Temperature: 12.0°C (54°F)
Dewpoint: 11.0°C (52°F) [RH = 94%]
Pressure (altimeter): 30.57 inches Hg (1035.3 mb)
Winds: calm
Visibility: 10 or more miles (16+ km)
Ceiling: 11000 feet AGL
Clouds: overcast cloud deck at 11000 feet AGL
Weather: automated observation with no human augmentation;
there may or may not be significant weather present at this time

METAR text: KTEX 281035Z AUTO 00000KT 10SM OVC110 12/11 A3057 RMK AO2
Conditions at: KTEX (TELLURIDE REGION, CO, US) observed 1035 UTC 28 July 2021
Temperature: 12.0°C (54°F)
Dewpoint: 11.0°C (52°F) [RH = 94%]
Pressure (altimeter): 30.57 inches Hg (1035.3 mb)
Winds: calm
Visibility: 10 or more miles (16+ km)
Ceiling: 11000 feet AGL
Clouds: overcast cloud deck at 11000 feet AGL
Weather: automated observation with no human augmentation;
there may or may not be significant weather present at this time

METAR text: KTEX 281015Z AUTO 13005KT 10SM SCT110 12/11 A3057 RMK AO2
Conditions at: KTEX (TELLURIDE REGION, CO, US) observed 1015 UTC 28 July 2021
Temperature: 12.0°C (54°F)
Dewpoint: 11.0°C (52°F) [RH = 94%]
Pressure (altimeter): 30.57 inches Hg (1035.3 mb)
Winds: from the SE (130 degrees) at 6 MPH (5 knots; 2.6 m/s)
Visibility: 10 or more miles (16+ km)
Ceiling: at least 12,000 feet AGL
Clouds: scattered clouds at 11000 feet AGL
Weather: automated observation with no human augmentation;
there may or may not be significant weather present at this time

Forecast for: KTEX (TELLURIDE REGION, CO, US)
Text: KTEX 280542Z 2806/2906 14008KT P6SM SCT050 BKN080
Forecast period: 0600 to 1800 UTC 28 July 2021
Forecast type: FROM: standard forecast or significant change
Winds: from the SE (140 degrees) at 9 MPH (8 knots; 4.1 m/s)
Visibility: 6 or more miles (10+ km)
Ceiling: 8000 feet AGL
Clouds: scattered clouds at 5000 feet AGL
broken clouds at 8000 feet AGL
Weather: no significant weather forecast for this period
Text: FM281800 26008G18KT P6SM VCTS SCT050CB BKN100
Forecast period: 1800 to 2300 UTC 28 July 2021
Forecast type: FROM: standard forecast or significant change
Winds: from the W (260 degrees) at 9 MPH (8 knots; 4.1 m/s)
gusting to 21 MPH (18 knots; 9.3 m/s)
Visibility: 6 or more miles (10+ km)
Ceiling: 10000 feet AGL
Clouds: scattered clouds at 5000 feet AGL
broken clouds at 10000 feet AGL
Weather: VCTS  (thunderstorm in vicinity)
Text: FM282300 14008G18KT 6SM SHRA BR VCTS SCT060CB BKN090
Forecast period: 2300 UTC 28 July 2021 to 0200 UTC 29 July 2021
Forecast type: FROM: standard forecast or significant change
Winds: from the SE (140 degrees) at 9 MPH (8 knots; 4.1 m/s)
gusting to 21 MPH (18 knots; 9.3 m/s)
Visibility: 6 miles (10 km)
Ceiling: 9000 feet AGL
Clouds: scattered clouds at 6000 feet AGL
broken clouds at 9000 feet AGL
Weather: SHRA BR VCTS  (rain showers, mist, thunderstorm in vicinity)
Text: FM290200 11005KT P6SM SCT060 BKN090
Forecast period: 0200 to 0600 UTC 29 July 2021
Forecast type: FROM: standard forecast or significant change
Winds: from the ESE (110 degrees) at 6 MPH (5 knots; 2.6 m/s)
Visibility: 6 or more miles (10+ km)
Ceiling: 9000 feet AGL
Clouds: scattered clouds at 6000 feet AGL
broken clouds at 9000 feet AGL
Weather: no significant weather forecast for this period